createdAt,value
2023-02-12T00:00:16.126Z,3.10
2023-02-12T00:05:19.664Z,3.00
2023-02-12T00:10:21.912Z,2.90
2023-02-12T00:15:24.082Z,3.00
2023-02-12T00:20:27.745Z,3.20
2023-02-12T00:25:29.973Z,3.60
2023-02-12T00:30:32.093Z,3.60
2023-02-12T00:35:36.394Z,3.80
2023-02-12T00:40:38.817Z,3.90
2023-02-12T00:45:41.050Z,3.80
2023-02-12T00:50:47.569Z,4.10
2023-02-12T00:55:49.726Z,4.10
2023-02-12T01:00:52.885Z,4.20
2023-02-12T01:05:56.653Z,4.10
2023-02-12T01:11:03.359Z,3.80
2023-02-12T01:16:08.962Z,3.70
2023-02-12T01:21:16.798Z,3.70
2023-02-12T01:26:21.404Z,3.90
2023-02-12T01:31:26.548Z,4.10
2023-02-12T01:36:32.552Z,3.80
2023-02-12T01:41:39.741Z,3.70
2023-02-12T01:46:43.982Z,3.60
2023-02-12T01:51:52.356Z,3.80
2023-02-12T01:56:55.588Z,4.00
2023-02-12T02:01:58.557Z,3.80
2023-02-12T02:07:04.933Z,4.00
2023-02-12T02:12:08.166Z,4.20
2023-02-12T02:17:49.682Z,4.30
2023-02-12T02:23:13.470Z,4.30
2023-02-12T02:28:45.495Z,4.10
2023-02-12T02:33:57.489Z,4.20
2023-02-12T02:39:09.274Z,4.10
2023-02-12T02:44:19.664Z,4.00
2023-02-12T02:49:30.574Z,3.90
2023-02-12T02:54:37.758Z,3.90
2023-02-12T02:59:47.670Z,3.90
2023-02-12T03:04:57.909Z,3.80
2023-02-12T03:10:07.769Z,3.80
2023-02-12T03:15:18.269Z,3.70
2023-02-12T03:20:28.973Z,3.60
2023-02-12T03:25:38.369Z,3.60
2023-02-12T03:30:48.204Z,3.50
2023-02-12T03:36:02.540Z,3.50
2023-02-12T03:41:10.879Z,3.40
2023-02-12T03:46:24.541Z,3.30
2023-02-12T03:51:35.010Z,3.30
2023-02-12T03:56:44.199Z,3.20
2023-02-12T04:01:48.779Z,3.20
2023-02-12T04:06:54.454Z,3.20
2023-02-12T04:12:15.488Z,3.10
2023-02-12T04:17:30.120Z,3.10
2023-02-12T04:22:51.180Z,3.10
2023-02-12T04:28:03.423Z,2.90
2023-02-12T04:33:10.601Z,2.90
2023-02-12T04:38:20.464Z,2.80
2023-02-12T04:43:28.464Z,2.70
2023-02-12T04:48:30.860Z,2.70
2023-02-12T04:53:34.390Z,2.70
2023-02-12T04:58:36.581Z,2.60
2023-02-12T05:03:39.018Z,2.60
2023-02-12T05:08:42.459Z,2.60
2023-02-12T05:13:47.927Z,2.40
2023-02-12T05:18:50.108Z,2.30
2023-02-12T05:23:53.603Z,2.30
2023-02-12T05:28:55.802Z,2.30
2023-02-12T05:33:58.011Z,2.30
2023-02-12T05:39:01.602Z,2.30
2023-02-12T05:44:05.008Z,2.20
2023-02-12T05:49:07.210Z,2.10
2023-02-12T05:54:10.951Z,2.10
2023-02-12T05:59:16.630Z,2.00
2023-02-12T06:04:22.480Z,1.90
2023-02-12T06:09:26.424Z,1.90
2023-02-12T06:14:31.489Z,1.80
2023-02-12T06:19:34.396Z,1.90
2023-02-12T06:24:38.283Z,1.90
2023-02-12T06:29:40.570Z,1.90
2023-02-12T06:34:42.782Z,1.80
2023-02-12T06:39:46.678Z,2.00
2023-02-12T06:44:51.310Z,1.90
2023-02-12T06:49:54.973Z,1.90
2023-02-12T06:54:58.588Z,1.80
2023-02-12T07:00:00.893Z,2.00
2023-02-12T07:05:03.729Z,2.00
2023-02-12T07:10:09.598Z,2.00
2023-02-12T07:15:12.468Z,2.00
2023-02-12T07:20:15.025Z,2.10
2023-02-12T07:25:18.810Z,2.20
2023-02-12T07:30:21.453Z,2.30
2023-02-12T07:35:23.999Z,2.40
2023-02-12T07:40:27.879Z,2.40
2023-02-12T07:45:30.192Z,2.60
2023-02-12T07:50:32.455Z,2.70
2023-02-12T07:55:36.185Z,2.70
2023-02-12T08:00:38.553Z,2.80
2023-02-12T08:05:40.827Z,3.00
2023-02-12T08:10:44.417Z,3.10
2023-02-12T08:15:46.636Z,3.30
2023-02-12T08:20:48.947Z,3.40
2023-02-12T08:25:52.820Z,3.60
2023-02-12T08:31:01.405Z,3.70
2023-02-12T08:36:07.115Z,3.90
2023-02-12T08:41:13.239Z,4.00
2023-02-12T08:46:18.912Z,3.90
2023-02-12T08:51:24.626Z,3.90
2023-02-12T08:56:30.539Z,3.90
2023-02-12T09:01:36.891Z,4.00
2023-02-12T09:06:39.360Z,4.10
2023-02-12T09:11:45.100Z,4.00
2023-02-12T09:16:47.519Z,4.10
2023-02-12T09:21:55.236Z,4.20
2023-02-12T09:26:59.663Z,4.10
2023-02-12T09:32:02.189Z,4.30
2023-02-12T09:37:04.506Z,4.50
2023-02-12T09:42:31.946Z,4.60
2023-02-12T09:47:44.813Z,4.80
2023-02-12T09:52:49.280Z,4.90
2023-02-12T09:57:54.957Z,4.90
2023-02-12T10:03:03.991Z,4.70
2023-02-12T10:08:41.580Z,4.80
2023-02-12T10:13:59.041Z,5.00
2023-02-12T10:19:21.337Z,5.00
2023-02-12T10:24:56.161Z,5.10
2023-02-12T10:30:01.292Z,5.10
2023-02-12T10:35:15.186Z,5.20
2023-02-12T10:40:23.559Z,5.20
2023-02-12T10:45:31.718Z,5.30
2023-02-12T10:50:47.727Z,5.30
2023-02-12T10:56:04.086Z,5.40
2023-02-12T11:01:17.814Z,5.50
2023-02-12T11:06:23.750Z,5.60
2023-02-12T11:11:32.769Z,5.70
2023-02-12T11:16:43.903Z,5.80
2023-02-12T11:21:46.622Z,6.00
2023-02-12T11:26:49.020Z,5.80
2023-02-12T11:32:06.218Z,5.80
2023-02-12T11:37:17.443Z,5.80
2023-02-12T11:42:24.347Z,5.80
2023-02-12T11:47:31.652Z,5.80
2023-02-12T11:52:39.943Z,5.80
2023-02-12T11:57:47.032Z,5.50
2023-02-12T12:02:58.549Z,5.70
2023-02-12T12:08:07.783Z,5.60
2023-02-12T12:13:16.235Z,5.70
2023-02-12T12:18:31.225Z,5.70
2023-02-12T12:23:40.337Z,5.60
2023-02-12T12:28:50.389Z,5.50
2023-02-12T12:34:04.536Z,5.80
2023-02-12T12:39:17.565Z,5.90
2023-02-12T12:44:42.932Z,5.80
2023-02-12T12:50:00.233Z,5.90
2023-02-12T12:55:26.450Z,5.80
2023-02-12T13:00:57.860Z,5.80
2023-02-12T13:06:35.952Z,5.80
2023-02-12T13:11:57.391Z,5.80
2023-02-12T13:17:14.035Z,5.60
2023-02-12T13:22:35.551Z,5.70
2023-02-12T13:27:43.556Z,5.70
2023-02-12T13:32:55.249Z,5.80
2023-02-12T13:38:02.862Z,5.80
2023-02-12T13:43:27.249Z,5.80
2023-02-12T13:48:52.084Z,6.00
2023-02-12T13:54:22.315Z,6.00
2023-02-12T13:59:46.803Z,6.10
2023-02-12T14:04:57.506Z,6.30
2023-02-12T14:10:06.977Z,6.30
2023-02-12T14:15:22.241Z,6.30
2023-02-12T14:20:29.202Z,6.20
2023-02-12T14:25:56.654Z,5.80
2023-02-12T14:31:34.284Z,5.80
2023-02-12T14:36:39.284Z,5.80
2023-02-12T14:41:43.108Z,5.80
2023-02-12T14:46:49.120Z,6.00
2023-02-12T14:51:59.158Z,6.00
2023-02-12T14:57:10.261Z,6.00
2023-02-12T15:02:23.374Z,6.10
2023-02-12T15:07:33.467Z,6.10
2023-02-12T15:12:42.698Z,6.00
2023-02-12T15:18:00.341Z,6.00
2023-02-12T15:23:02.647Z,6.10
2023-02-12T15:28:19.010Z,6.20
2023-02-12T15:33:28.195Z,6.20
2023-02-12T15:38:35.377Z,6.20
2023-02-12T15:43:41.721Z,6.20
2023-02-12T15:48:44.858Z,6.20
2023-02-12T15:53:47.832Z,6.20
2023-02-12T15:58:54.823Z,6.20
2023-02-12T16:04:00.364Z,6.20
2023-02-12T16:09:07.697Z,6.20
2023-02-12T16:14:23.493Z,6.20
2023-02-12T16:19:28.732Z,6.20
2023-02-12T16:24:34.710Z,6.20
2023-02-12T16:29:45.793Z,6.30
2023-02-12T16:35:01.144Z,6.30
2023-02-12T16:40:27.046Z,6.30
2023-02-12T16:45:40.722Z,6.20
2023-02-12T16:50:50.704Z,6.30
2023-02-12T16:55:53.409Z,6.30
2023-02-12T17:00:59.250Z,6.30
2023-02-12T17:06:01.545Z,6.30
2023-02-12T17:11:04.355Z,6.30
2023-02-12T17:16:09.998Z,6.40
2023-02-12T17:21:23.696Z,6.50
2023-02-12T17:26:25.925Z,6.40
2023-02-12T17:31:29.526Z,6.40
2023-02-12T17:36:32.443Z,6.40
2023-02-12T17:41:35.174Z,6.40
2023-02-12T17:46:38.953Z,6.50
2023-02-12T17:51:41.290Z,6.50
2023-02-12T17:56:43.596Z,6.50
2023-02-12T18:01:47.293Z,6.50
2023-02-12T18:06:49.660Z,6.50
2023-02-12T18:11:52.181Z,6.60
2023-02-12T18:16:56.199Z,6.70
2023-02-12T18:21:58.475Z,6.60
2023-02-12T18:27:00.718Z,6.60
2023-02-12T18:32:04.482Z,6.50
2023-02-12T18:37:06.996Z,6.60
2023-02-12T18:42:09.312Z,6.60
2023-02-12T18:47:13.009Z,6.60
2023-02-12T18:52:15.748Z,6.60
2023-02-12T18:57:20.125Z,6.60
2023-02-12T19:02:26.241Z,6.50
2023-02-12T19:07:28.707Z,6.60
2023-02-12T19:12:31.182Z,6.70
2023-02-12T19:17:36.189Z,6.70
2023-02-12T19:22:38.794Z,6.60
2023-02-12T19:27:41.077Z,6.70
2023-02-12T19:32:44.638Z,6.80
2023-02-12T19:37:47.023Z,6.70
2023-02-12T19:42:49.580Z,6.80
2023-02-12T19:47:53.607Z,6.70
2023-02-12T19:52:56.249Z,6.70
2023-02-12T19:57:58.649Z,6.70
2023-02-12T20:03:02.377Z,6.80
2023-02-12T20:08:05.097Z,6.80
2023-02-12T20:13:08.446Z,6.70
2023-02-12T20:18:12.104Z,6.70
2023-02-12T20:23:15.047Z,6.80
2023-02-12T20:28:17.926Z,6.80
2023-02-12T20:33:24.426Z,6.80
2023-02-12T20:38:27.546Z,6.90
2023-02-12T20:43:30.059Z,6.80
2023-02-12T20:48:35.033Z,6.90
2023-02-12T20:53:38.496Z,6.90
2023-02-12T20:58:41.984Z,6.80
2023-02-12T21:03:45.926Z,6.80
2023-02-12T21:08:48.896Z,6.80
2023-02-12T21:14:02.210Z,6.90
2023-02-12T21:19:06.529Z,6.90
2023-02-12T21:24:13.704Z,6.90
2023-02-12T21:29:17.023Z,6.80
2023-02-12T21:34:23.701Z,6.80
2023-02-12T21:39:28.577Z,6.80
2023-02-12T21:44:33.446Z,6.80
2023-02-12T21:49:37.259Z,6.80
2023-02-12T21:54:39.444Z,6.80
2023-02-12T21:59:41.646Z,6.90
2023-02-12T22:04:45.182Z,6.90
2023-02-12T22:09:47.446Z,7.00
2023-02-12T22:14:49.957Z,6.90
2023-02-12T22:19:53.427Z,6.80
2023-02-12T22:24:55.960Z,6.80
2023-02-12T22:29:58.425Z,6.90
2023-02-12T22:35:02.014Z,6.90
2023-02-12T22:40:05.400Z,6.90
2023-02-12T22:45:08.632Z,6.90
2023-02-12T22:50:12.446Z,7.00
2023-02-12T22:55:14.854Z,6.90
2023-02-12T23:00:18.819Z,7.00
2023-02-12T23:05:22.373Z,7.00
2023-02-12T23:10:24.616Z,7.00
2023-02-12T23:15:27.026Z,6.90
2023-02-12T23:20:30.604Z,7.00
2023-02-12T23:25:32.812Z,7.00
2023-02-12T23:30:35.142Z,7.00
2023-02-12T23:35:38.948Z,7.00
2023-02-12T23:40:42.425Z,6.90
2023-02-12T23:45:45.069Z,7.00
2023-02-12T23:50:49.901Z,6.90
2023-02-12T23:55:52.239Z,6.90
